Aviation Digital Data Service (ADDS)

Output produced by METARs form (1038 UTC 18 June 2019)
found at http://www.aviationweather.gov/metar/data/
 
Forecast for: YPCC (COCOS ISL INTL A, AU)
Text: TAF YPCC 180503Z 1806/1906 09012KT 9999 -SHRA SCT025
Forecast period: 0600 to 1500 UTC 18 June 2019
Forecast type: FROM: standard forecast or significant change
Winds: from the E (90 degrees) at 14 MPH (12 knots; 6.2 m/s)
Visibility: 6 or more miles 10+ km)
Ceiling: at least 12,000 feet AGL
Clouds: scattered clouds at 2500 feet AGL
Weather: -SHRA  (light rain showers)
Text: FM181500 09012KT 9999 -SHRA SCT020 BKN030
Forecast period: 1500 UTC 18 June 2019 to 0200 UTC 19 June 2019
Forecast type: FROM: standard forecast or significant change
Winds: from the E (90 degrees) at 14 MPH (12 knots; 6.2 m/s)
Visibility: 6 or more miles 10+ km)
Ceiling: 3000 feet AGL
Clouds: scattered clouds at 2000 feet AGL
broken clouds at 3000 feet AGL
Weather: -SHRA  (light rain showers)
Text: FM190200 09012KT 9999 SCT030
Forecast period: 0200 to 0600 UTC 19 June 2019
Forecast type: FROM: standard forecast or significant change
Winds: from the E (90 degrees) at 14 MPH (12 knots; 6.2 m/s)
Visibility: 6 or more miles 10+ km)
Ceiling: at least 12,000 feet AGL
Clouds: scattered clouds at 3000 feet AGL
Weather: no significant weather forecast for this period